createdAt,value
2018-09-17T00:00:26.751Z,1014.16
2018-09-17T00:02:19.660Z,1014.13
2018-09-17T00:03:19.674Z,1014.13
2018-09-17T00:05:12.590Z,1014.11
2018-09-17T00:06:12.599Z,1014.13
2018-09-17T00:08:05.506Z,1014.11
2018-09-17T00:09:05.529Z,1014.10
2018-09-17T00:10:58.438Z,1014.13
2018-09-17T00:11:58.450Z,1014.14
2018-09-17T00:13:51.374Z,1014.11
2018-09-17T00:14:51.372Z,1014.13
2018-09-17T00:16:44.277Z,1014.15
2018-09-17T00:17:44.299Z,1014.11
2018-09-17T00:19:37.214Z,1014.10
2018-09-17T00:20:37.224Z,1014.08
2018-09-17T00:22:30.126Z,1014.12
2018-09-17T00:23:30.145Z,1014.10
2018-09-17T00:25:23.059Z,1014.10
2018-09-17T00:26:23.069Z,1014.10
2018-09-17T00:28:15.981Z,1014.07
2018-09-17T00:29:16.003Z,1014.00
2018-09-17T00:31:08.920Z,1013.96
2018-09-17T00:32:08.929Z,1013.94
2018-09-17T00:34:01.835Z,1013.98
2018-09-17T00:35:01.856Z,1014.00
2018-09-17T00:36:54.791Z,1014.00
2018-09-17T00:37:54.796Z,1013.98
2018-09-17T00:39:47.701Z,1013.99
2018-09-17T00:40:47.718Z,1014.03
2018-09-17T00:42:40.648Z,1014.06
2018-09-17T00:43:40.645Z,1014.05
2018-09-17T00:45:33.572Z,1014.07
2018-09-17T00:46:33.565Z,1014.09
2018-09-17T00:48:26.491Z,1014.11
2018-09-17T00:49:26.486Z,1014.06
2018-09-17T00:51:19.403Z,1014.02
2018-09-17T00:52:19.412Z,1014.00
2018-09-17T00:54:12.316Z,1014.05
2018-09-17T00:55:12.336Z,1014.03
2018-09-17T00:57:05.253Z,1014.04
2018-09-17T00:58:05.259Z,1014.03
2018-09-17T00:59:58.161Z,1014.06
2018-09-17T01:00:58.186Z,1014.05
2018-09-17T01:02:51.099Z,1014.04
2018-09-17T01:03:51.114Z,1014.07
2018-09-17T01:05:44.022Z,1014.08
2018-09-17T01:06:44.030Z,1014.07
2018-09-17T01:08:36.942Z,1014.08
2018-09-17T01:09:36.975Z,1014.07
2018-09-17T01:11:29.871Z,1014.05
2018-09-17T01:12:29.876Z,1014.03
2018-09-17T01:14:22.786Z,1014.05
2018-09-17T01:15:22.827Z,1014.06
2018-09-17T01:17:15.720Z,1014.09
2018-09-17T01:18:15.730Z,1014.11
2018-09-17T01:20:08.641Z,1014.11
2018-09-17T01:21:08.656Z,1014.11
2018-09-17T01:23:01.571Z,1014.09
2018-09-17T01:24:01.575Z,1014.07
2018-09-17T01:25:54.523Z,1014.07
2018-09-17T01:26:54.521Z,1014.05
2018-09-17T01:28:47.428Z,1014.05
2018-09-17T01:29:47.443Z,1014.07
2018-09-17T01:31:40.373Z,1014.09
2018-09-17T01:32:40.372Z,1014.09
2018-09-17T01:34:33.264Z,1014.07
2018-09-17T01:35:33.287Z,1014.10
2018-09-17T01:37:26.197Z,1014.08
2018-09-17T01:38:26.205Z,1014.10
2018-09-17T01:40:19.118Z,1014.10
2018-09-17T01:41:19.136Z,1014.10
2018-09-17T01:43:12.048Z,1014.09
2018-09-17T01:44:12.056Z,1014.07
2018-09-17T01:46:04.986Z,1014.03
2018-09-17T01:47:04.977Z,1013.98
2018-09-17T01:48:57.896Z,1013.90
2018-09-17T01:49:57.904Z,1013.87
2018-09-17T01:51:50.816Z,1013.83
2018-09-17T01:52:50.824Z,1013.82
2018-09-17T01:54:43.726Z,1013.81
2018-09-17T01:55:43.743Z,1013.84
2018-09-17T01:57:36.659Z,1013.86
2018-09-17T01:58:36.669Z,1013.85
2018-09-17T02:00:29.571Z,1013.87
2018-09-17T02:01:29.590Z,1013.87
2018-09-17T02:03:22.502Z,1013.83
2018-09-17T02:04:22.513Z,1013.87
2018-09-17T02:06:15.414Z,1013.83
2018-09-17T02:07:15.432Z,1013.79
2018-09-17T02:09:08.418Z,1013.73
2018-09-17T02:10:08.357Z,1013.76
2018-09-17T02:12:01.257Z,1013.73
2018-09-17T02:13:01.277Z,1013.70
2018-09-17T02:14:54.187Z,1013.69
2018-09-17T02:15:54.198Z,1013.67
2018-09-17T02:17:47.106Z,1013.70
2018-09-17T02:18:47.115Z,1013.71
2018-09-17T02:20:40.017Z,1013.62
2018-09-17T02:21:40.038Z,1013.64
2018-09-17T02:23:32.948Z,1013.62
2018-09-17T02:24:32.957Z,1013.67
2018-09-17T02:26:25.859Z,1013.67
2018-09-17T02:27:25.875Z,1013.67
2018-09-17T02:29:18.791Z,1013.67
2018-09-17T02:30:18.797Z,1013.71
2018-09-17T02:32:11.699Z,1013.72
2018-09-17T02:33:11.724Z,1013.69
2018-09-17T02:35:04.626Z,1013.76
2018-09-17T02:36:04.638Z,1013.78
2018-09-17T02:37:57.552Z,1013.83
2018-09-17T02:38:57.557Z,1013.85
2018-09-17T02:40:50.467Z,1013.88
2018-09-17T02:41:50.481Z,1013.93
2018-09-17T02:43:43.396Z,1013.90
2018-09-17T02:44:43.400Z,1013.94
2018-09-17T02:46:36.305Z,1013.94
2018-09-17T02:47:36.323Z,1013.93
2018-09-17T02:49:29.255Z,1013.95
2018-09-17T02:50:29.249Z,1013.98
2018-09-17T02:52:22.165Z,1013.93
2018-09-17T02:53:22.178Z,1013.89
2018-09-17T02:55:15.090Z,1013.90
2018-09-17T02:56:15.095Z,1013.91
2018-09-17T02:58:07.997Z,1013.88
2018-09-17T02:59:08.013Z,1013.88
2018-09-17T03:01:00.931Z,1013.86
2018-09-17T03:02:00.937Z,1013.88
2018-09-17T03:03:53.859Z,1013.88
2018-09-17T03:04:53.860Z,1013.89
2018-09-17T03:06:46.762Z,1013.90
2018-09-17T03:07:46.779Z,1013.88
2018-09-17T03:09:39.692Z,1013.88
2018-09-17T03:10:39.699Z,1013.88
2018-09-17T03:12:32.598Z,1013.91
2018-09-17T03:13:32.617Z,1013.93
2018-09-17T03:15:25.528Z,1013.95
2018-09-17T03:16:25.536Z,1013.97
2018-09-17T03:18:18.439Z,1013.98
2018-09-17T03:19:18.458Z,1013.97
2018-09-17T03:21:11.370Z,1014.04
2018-09-17T03:22:11.394Z,1014.09
2018-09-17T03:24:04.304Z,1014.12
2018-09-17T03:25:04.300Z,1014.12
2018-09-17T03:26:57.199Z,1014.12
2018-09-17T03:27:57.209Z,1014.09
2018-09-17T03:29:50.127Z,1014.12
2018-09-17T03:30:50.157Z,1014.13
2018-09-17T03:32:43.040Z,1014.19
2018-09-17T03:33:43.078Z,1014.18
2018-09-17T03:35:35.969Z,1014.10
2018-09-17T03:36:35.979Z,1014.11
2018-09-17T03:38:28.874Z,1014.11
2018-09-17T03:39:28.896Z,1014.13
2018-09-17T03:41:21.806Z,1014.16
2018-09-17T03:42:21.815Z,1014.14
2018-09-17T03:44:14.742Z,1014.09
2018-09-17T03:45:14.761Z,1014.07
2018-09-17T03:47:07.683Z,1014.08
2018-09-17T03:48:07.691Z,1014.06
2018-09-17T03:50:00.621Z,1014.11
2018-09-17T03:51:00.610Z,1014.08
2018-09-17T03:52:53.513Z,1014.08
2018-09-17T03:53:53.532Z,1014.10
2018-09-17T03:55:46.442Z,1014.08
2018-09-17T03:56:46.450Z,1014.04
2018-09-17T03:58:39.357Z,1014.00
2018-09-17T03:59:39.374Z,1013.96
2018-09-17T04:01:32.286Z,1013.95
2018-09-17T04:02:32.296Z,1013.96
2018-09-17T04:04:25.195Z,1013.95
2018-09-17T04:05:25.213Z,1013.95
2018-09-17T04:07:18.123Z,1013.90
2018-09-17T04:08:18.133Z,1013.88
2018-09-17T04:10:11.035Z,1013.80
2018-09-17T04:11:11.057Z,1013.81
2018-09-17T04:13:03.961Z,1013.85
2018-09-17T04:14:03.973Z,1013.82
2018-09-17T04:15:56.883Z,1013.88
2018-09-17T04:16:56.892Z,1013.88
2018-09-17T04:18:49.790Z,1013.91
2018-09-17T04:19:49.809Z,1013.91
2018-09-17T04:21:42.723Z,1013.90
2018-09-17T04:22:42.731Z,1013.90
2018-09-17T04:24:35.636Z,1013.88
2018-09-17T04:25:35.650Z,1013.88
2018-09-17T04:27:28.560Z,1013.88
2018-09-17T04:28:28.569Z,1013.89
2018-09-17T04:30:21.474Z,1013.92
2018-09-17T04:31:21.491Z,1013.95
2018-09-17T04:33:14.495Z,1013.99
2018-09-17T04:34:14.408Z,1013.97
2018-09-17T04:36:07.317Z,1013.97
2018-09-17T04:37:07.331Z,1013.95
2018-09-17T04:39:00.243Z,1013.98
2018-09-17T04:40:00.248Z,1014.03
2018-09-17T04:41:53.163Z,1014.03
2018-09-17T04:42:53.170Z,1014.06
2018-09-17T04:44:46.070Z,1014.05
2018-09-17T04:45:46.089Z,1014.02
2018-09-17T04:47:39.003Z,1014.02
2018-09-17T04:48:39.030Z,1014.05
2018-09-17T04:50:31.917Z,1014.03
2018-09-17T04:51:31.927Z,1013.99
2018-09-17T04:53:24.867Z,1014.01
2018-09-17T04:54:24.871Z,1013.99
2018-09-17T04:56:17.762Z,1014.06
2018-09-17T04:57:17.804Z,1014.06
2018-09-17T04:59:10.689Z,1014.15
2018-09-17T05:00:10.697Z,1014.21
2018-09-17T05:02:03.595Z,1014.22
2018-09-17T05:03:03.610Z,1014.22
2018-09-17T05:04:56.523Z,1014.24
2018-09-17T05:05:56.532Z,1014.29
2018-09-17T05:07:49.438Z,1014.31
2018-09-17T05:08:49.449Z,1014.33
2018-09-17T05:10:42.345Z,1014.31
2018-09-17T05:11:42.368Z,1014.33
2018-09-17T05:13:35.274Z,1014.34
2018-09-17T05:14:35.289Z,1014.34
2018-09-17T05:16:28.216Z,1014.41
2018-09-17T05:17:28.212Z,1014.44
2018-09-17T05:19:21.133Z,1014.46
2018-09-17T05:20:21.128Z,1014.44
2018-09-17T05:22:14.055Z,1014.42
2018-09-17T05:23:14.054Z,1014.43
2018-09-17T05:25:06.969Z,1014.42
2018-09-17T05:26:06.969Z,1014.45
2018-09-17T05:27:59.898Z,1014.43
2018-09-17T05:28:59.889Z,1014.41
2018-09-17T05:30:52.794Z,1014.43
2018-09-17T05:31:52.810Z,1014.42
2018-09-17T05:33:45.725Z,1014.43
2018-09-17T05:34:45.737Z,1014.44
2018-09-17T05:36:38.634Z,1014.43
2018-09-17T05:37:38.652Z,1014.43
2018-09-17T05:39:31.565Z,1014.38
2018-09-17T05:40:31.575Z,1014.34
2018-09-17T05:42:24.471Z,1014.41
2018-09-17T05:43:24.489Z,1014.46
2018-09-17T05:45:17.402Z,1014.48
2018-09-17T05:46:17.419Z,1014.49
2018-09-17T05:48:10.315Z,1014.48
2018-09-17T05:49:10.326Z,1014.50
2018-09-17T05:51:03.241Z,1014.56
2018-09-17T05:52:03.263Z,1014.56
2018-09-17T05:53:56.194Z,1014.59
2018-09-17T05:54:56.172Z,1014.63
2018-09-17T05:56:49.075Z,1014.64
2018-09-17T05:57:49.083Z,1014.59
2018-09-17T05:59:42.087Z,1014.56
2018-09-17T06:00:42.025Z,1014.54
2018-09-17T06:02:34.914Z,1014.58
2018-09-17T06:03:34.945Z,1014.58
2018-09-17T06:05:27.859Z,1014.56
2018-09-17T06:06:27.858Z,1014.58
2018-09-17T06:08:21.756Z,1014.61
2018-09-17T06:09:21.775Z,1014.58
2018-09-17T06:11:14.708Z,1014.56
2018-09-17T06:12:14.699Z,1014.59
2018-09-17T06:14:07.618Z,1014.56
2018-09-17T06:15:07.626Z,1014.56
2018-09-17T06:17:00.527Z,1014.57
2018-09-17T06:18:00.547Z,1014.59
2018-09-17T06:19:53.506Z,1014.63
2018-09-17T06:20:53.469Z,1014.60
2018-09-17T06:22:46.381Z,1014.64
2018-09-17T06:23:46.403Z,1014.68
2018-09-17T06:25:39.312Z,1014.70
2018-09-17T06:26:39.417Z,1014.70
2018-09-17T06:28:32.238Z,1014.69
2018-09-17T06:29:32.243Z,1014.69
2018-09-17T06:31:25.165Z,1014.74
2018-09-17T06:32:25.171Z,1014.77
2018-09-17T06:34:18.072Z,1014.77
2018-09-17T06:35:18.094Z,1014.79
2018-09-17T06:37:11.181Z,1014.82
2018-09-17T06:38:11.178Z,1014.87
2018-09-17T06:40:04.181Z,1014.94
2018-09-17T06:41:04.134Z,1014.95
2018-09-17T06:42:57.036Z,1015.01
2018-09-17T06:43:57.051Z,1014.99
2018-09-17T06:45:49.974Z,1015.00
2018-09-17T06:46:49.964Z,1015.00
2018-09-17T06:48:42.891Z,1015.01
2018-09-17T06:49:42.908Z,1014.98
2018-09-17T06:51:35.845Z,1015.01
2018-09-17T06:52:35.858Z,1014.98
2018-09-17T06:54:28.767Z,1015.05
2018-09-17T06:55:28.789Z,1015.10
2018-09-17T06:57:21.700Z,1015.09
2018-09-17T06:58:21.713Z,1015.12
2018-09-17T07:00:14.638Z,1015.10
2018-09-17T07:01:14.634Z,1015.05
2018-09-17T07:03:07.541Z,1015.06
2018-09-17T07:04:07.562Z,1015.03
2018-09-17T07:06:00.482Z,1015.03
2018-09-17T07:07:00.494Z,1015.03
2018-09-17T07:08:53.395Z,1015.00
2018-09-17T07:09:53.415Z,1014.99
2018-09-17T07:11:46.328Z,1014.94
2018-09-17T07:12:46.339Z,1014.92
2018-09-17T07:14:39.249Z,1014.87
2018-09-17T07:15:39.268Z,1014.84
2018-09-17T07:17:32.182Z,1014.87
2018-09-17T07:18:32.192Z,1014.82
2018-09-17T07:20:25.102Z,1014.89
2018-09-17T07:21:25.120Z,1014.88
2018-09-17T07:23:18.032Z,1014.90
2018-09-17T07:24:18.048Z,1014.90
2018-09-17T07:26:10.966Z,1014.85
2018-09-17T07:27:10.974Z,1014.83
2018-09-17T07:29:03.882Z,1014.89
2018-09-17T07:30:03.896Z,1014.84
2018-09-17T07:31:56.810Z,1014.92
2018-09-17T07:32:56.822Z,1014.90
2018-09-17T07:34:49.737Z,1014.94
2018-09-17T07:35:49.750Z,1014.88
2018-09-17T07:37:42.686Z,1014.95
2018-09-17T07:38:42.694Z,1014.92
2018-09-17T07:40:35.606Z,1014.89
2018-09-17T07:41:35.618Z,1014.88
2018-09-17T07:43:29.552Z,1014.89
2018-09-17T07:44:29.565Z,1014.91
2018-09-17T07:46:22.469Z,1014.91
2018-09-17T07:47:22.492Z,1014.90
2018-09-17T07:49:15.407Z,1014.92
2018-09-17T07:50:15.418Z,1014.92
2018-09-17T07:52:08.340Z,1014.91
2018-09-17T07:53:08.372Z,1014.92
2018-09-17T07:55:01.256Z,1014.87
2018-09-17T07:56:01.276Z,1014.89
2018-09-17T07:57:54.192Z,1014.90
2018-09-17T07:58:54.258Z,1014.91
2018-09-17T08:00:47.121Z,1014.97
2018-09-17T08:01:47.140Z,1014.91
2018-09-17T08:03:40.058Z,1014.93
2018-09-17T08:04:40.075Z,1014.94
2018-09-17T08:06:32.981Z,1014.91
2018-09-17T08:07:33.002Z,1014.91
2018-09-17T08:09:25.917Z,1014.90
2018-09-17T08:10:25.931Z,1014.91
2018-09-17T08:12:18.853Z,1014.89
2018-09-17T08:13:18.860Z,1014.83
2018-09-17T08:15:11.772Z,1014.79
2018-09-17T08:16:11.792Z,1014.78
2018-09-17T08:18:04.711Z,1014.78
2018-09-17T08:19:04.721Z,1014.79
2018-09-17T08:20:57.626Z,1014.80
2018-09-17T08:21:57.655Z,1014.80
2018-09-17T08:23:50.583Z,1014.80
2018-09-17T08:24:50.588Z,1014.78
2018-09-17T08:26:43.504Z,1014.74
2018-09-17T08:27:43.525Z,1014.76
2018-09-17T08:29:36.439Z,1014.73
2018-09-17T08:30:36.459Z,1014.72
2018-09-17T08:32:29.366Z,1014.72
2018-09-17T08:33:29.393Z,1014.69
2018-09-17T08:35:22.327Z,1014.64
2018-09-17T08:36:22.326Z,1014.64
2018-09-17T08:38:15.285Z,1014.68
2018-09-17T08:39:15.262Z,1014.66
2018-09-17T08:41:08.176Z,1014.66
2018-09-17T08:42:08.199Z,1014.71
2018-09-17T08:44:01.130Z,1014.68
2018-09-17T08:45:01.152Z,1014.69
2018-09-17T08:46:54.061Z,1014.67
2018-09-17T08:47:54.097Z,1014.64
2018-09-17T08:49:47.009Z,1014.59
2018-09-17T08:50:47.043Z,1014.58
2018-09-17T08:52:39.970Z,1014.61
2018-09-17T08:53:39.963Z,1014.59
2018-09-17T08:55:32.879Z,1014.62
2018-09-17T08:56:32.938Z,1014.60
2018-09-17T08:58:25.822Z,1014.57
2018-09-17T08:59:25.848Z,1014.63
2018-09-17T09:01:18.784Z,1014.63
2018-09-17T09:02:18.786Z,1014.62
2018-09-17T09:04:11.709Z,1014.64
2018-09-17T09:05:11.775Z,1014.66
2018-09-17T09:07:04.638Z,1014.69
2018-09-17T09:08:04.662Z,1014.65
2018-09-17T09:09:57.755Z,1014.70
2018-09-17T09:10:57.772Z,1014.73
2018-09-17T09:12:50.689Z,1014.69
2018-09-17T09:13:50.710Z,1014.68
2018-09-17T09:15:43.635Z,1014.67
2018-09-17T09:16:43.651Z,1014.65
2018-09-17T09:18:36.565Z,1014.65
2018-09-17T09:19:36.620Z,1014.61
2018-09-17T09:21:29.540Z,1014.65
2018-09-17T09:22:29.540Z,1014.59
2018-09-17T09:24:22.460Z,1014.63
2018-09-17T09:25:22.474Z,1014.65
2018-09-17T09:27:15.388Z,1014.68
2018-09-17T09:28:15.412Z,1014.68
2018-09-17T09:30:08.334Z,1014.68
2018-09-17T09:31:08.350Z,1014.68
2018-09-17T09:33:01.269Z,1014.67
2018-09-17T09:34:01.318Z,1014.66
2018-09-17T09:35:54.216Z,1014.59
2018-09-17T09:36:54.259Z,1014.60
2018-09-17T09:38:47.147Z,1014.51
2018-09-17T09:39:47.173Z,1014.55
2018-09-17T09:41:40.097Z,1014.52
2018-09-17T09:42:40.111Z,1014.54
2018-09-17T09:44:33.057Z,1014.56
2018-09-17T09:45:33.081Z,1014.56
2018-09-17T09:47:26.014Z,1014.55
2018-09-17T09:48:26.031Z,1014.52
2018-09-17T09:50:18.960Z,1014.53
2018-09-17T09:51:18.971Z,1014.56
2018-09-17T09:53:11.888Z,1014.50
2018-09-17T09:54:11.931Z,1014.51
2018-09-17T09:56:04.835Z,1014.48
2018-09-17T09:57:04.848Z,1014.46
2018-09-17T09:58:57.769Z,1014.46
2018-09-17T09:59:57.798Z,1014.51
2018-09-17T10:01:50.719Z,1014.43
2018-09-17T10:02:50.736Z,1014.42
2018-09-17T10:04:43.654Z,1014.42
2018-09-17T10:05:43.679Z,1014.46
2018-09-17T10:07:36.608Z,1014.45
2018-09-17T10:08:36.621Z,1014.46
2018-09-17T10:10:29.540Z,1014.44
2018-09-17T10:11:29.566Z,1014.39
2018-09-17T10:13:22.488Z,1014.37
2018-09-17T10:14:22.504Z,1014.37
2018-09-17T10:16:15.429Z,1014.38
2018-09-17T10:17:15.447Z,1014.37
2018-09-17T10:19:08.398Z,1014.30
2018-09-17T10:20:08.387Z,1014.35
2018-09-17T10:22:01.315Z,1014.28
2018-09-17T10:23:01.336Z,1014.29
2018-09-17T10:24:54.248Z,1014.27
2018-09-17T10:25:54.275Z,1014.27
2018-09-17T10:27:47.202Z,1014.23
2018-09-17T10:28:47.217Z,1014.21
2018-09-17T10:30:41.131Z,1014.21
2018-09-17T10:31:41.160Z,1014.20
2018-09-17T10:33:34.083Z,1014.17
2018-09-17T10:34:34.099Z,1014.17
2018-09-17T10:36:27.018Z,1014.14
2018-09-17T10:37:27.043Z,1014.15
2018-09-17T10:39:19.970Z,1014.12
2018-09-17T10:40:19.987Z,1014.09
2018-09-17T10:42:12.912Z,1014.08
2018-09-17T10:43:12.929Z,1014.11
2018-09-17T10:45:05.850Z,1014.11
2018-09-17T10:46:05.883Z,1014.08
2018-09-17T10:47:58.806Z,1014.06
2018-09-17T10:48:58.827Z,1014.07
2018-09-17T10:50:51.757Z,1014.04
2018-09-17T10:51:51.782Z,1014.01
2018-09-17T10:53:44.708Z,1013.98
2018-09-17T10:54:44.726Z,1013.95
2018-09-17T10:56:37.643Z,1013.98
2018-09-17T10:57:37.670Z,1013.97
2018-09-17T10:59:30.600Z,1013.94
2018-09-17T11:00:30.619Z,1013.94
2018-09-17T11:02:23.541Z,1013.92
2018-09-17T11:03:23.569Z,1013.91
2018-09-17T11:05:16.496Z,1013.91
2018-09-17T11:06:16.514Z,1013.89
2018-09-17T11:08:09.440Z,1013.86
2018-09-17T11:09:09.459Z,1013.88
2018-09-17T11:11:02.383Z,1013.87
2018-09-17T11:12:02.401Z,1013.84
2018-09-17T11:13:55.324Z,1013.80
2018-09-17T11:14:55.343Z,1013.78
2018-09-17T11:16:48.261Z,1013.79
2018-09-17T11:17:48.287Z,1013.77
2018-09-17T11:19:41.229Z,1013.76
2018-09-17T11:20:41.242Z,1013.76
2018-09-17T11:22:34.155Z,1013.75
2018-09-17T11:23:34.177Z,1013.75
2018-09-17T11:25:27.109Z,1013.74
2018-09-17T11:26:27.124Z,1013.69
2018-09-17T11:28:20.051Z,1013.69
2018-09-17T11:29:20.080Z,1013.76
2018-09-17T11:31:13.006Z,1013.74
2018-09-17T11:32:13.029Z,1013.72
2018-09-17T11:34:05.954Z,1013.72
2018-09-17T11:35:05.961Z,1013.70
2018-09-17T11:36:58.890Z,1013.74
2018-09-17T11:37:58.928Z,1013.70
2018-09-17T11:39:51.843Z,1013.75
2018-09-17T11:40:51.859Z,1013.73
2018-09-17T11:42:44.797Z,1013.68
2018-09-17T11:43:44.824Z,1013.70
2018-09-17T11:45:37.757Z,1013.66
2018-09-17T11:46:37.777Z,1013.70
2018-09-17T11:48:30.698Z,1013.69
2018-09-17T11:49:30.728Z,1013.69
2018-09-17T11:51:23.653Z,1013.63
2018-09-17T11:52:23.676Z,1013.61
2018-09-17T11:54:17.141Z,1013.60
2018-09-17T11:55:16.617Z,1013.60
2018-09-17T11:57:09.551Z,1013.58
2018-09-17T11:58:09.565Z,1013.55
2018-09-17T12:00:02.509Z,1013.60
2018-09-17T12:01:02.517Z,1013.62
2018-09-17T12:02:55.433Z,1013.61
2018-09-17T12:03:55.458Z,1013.54
2018-09-17T12:05:48.389Z,1013.56
2018-09-17T12:06:48.403Z,1013.50
2018-09-17T12:08:41.328Z,1013.53
2018-09-17T12:09:41.359Z,1013.54
2018-09-17T12:11:34.274Z,1013.48
2018-09-17T12:12:34.299Z,1013.53
2018-09-17T12:14:27.261Z,1013.51
2018-09-17T12:15:27.257Z,1013.51
2018-09-17T12:17:20.184Z,1013.43
2018-09-17T12:18:20.201Z,1013.41
2018-09-17T12:20:13.129Z,1013.40
2018-09-17T12:21:13.150Z,1013.40
2018-09-17T12:23:08.755Z,1013.40
2018-09-17T12:24:07.098Z,1013.39
2018-09-17T12:26:00.048Z,1013.37
2018-09-17T12:27:00.051Z,1013.38
2018-09-17T12:28:52.974Z,1013.38
2018-09-17T12:29:53.001Z,1013.32
2018-09-17T12:31:45.940Z,1013.31
2018-09-17T12:32:45.955Z,1013.29
2018-09-17T12:34:38.874Z,1013.29
2018-09-17T12:35:38.905Z,1013.22
2018-09-17T12:37:31.826Z,1013.24
2018-09-17T12:38:31.855Z,1013.22
2018-09-17T12:40:24.809Z,1013.19
2018-09-17T12:41:24.799Z,1013.20
2018-09-17T12:43:17.729Z,1013.20
2018-09-17T12:44:17.753Z,1013.17
2018-09-17T12:46:10.670Z,1013.15
2018-09-17T12:47:10.700Z,1013.14
2018-09-17T12:49:03.631Z,1013.12
2018-09-17T12:50:03.660Z,1013.13
2018-09-17T12:51:56.576Z,1013.09
2018-09-17T12:52:56.607Z,1013.08
2018-09-17T12:54:49.522Z,1013.08
2018-09-17T12:55:49.549Z,1013.05
2018-09-17T12:57:42.507Z,1013.05
2018-09-17T12:58:42.523Z,1013.06
2018-09-17T13:00:35.446Z,1012.99
2018-09-17T13:01:35.474Z,1012.99
2018-09-17T13:03:28.407Z,1012.98
2018-09-17T13:04:28.428Z,1012.93
2018-09-17T13:06:21.339Z,1012.89
2018-09-17T13:07:21.371Z,1012.86
2018-09-17T13:09:14.305Z,1012.87
2018-09-17T13:10:14.326Z,1012.83
2018-09-17T13:12:07.243Z,1012.84
2018-09-17T13:13:07.276Z,1012.79
2018-09-17T13:15:00.201Z,1012.77
2018-09-17T13:16:00.218Z,1012.77
2018-09-17T13:17:53.150Z,1012.78
2018-09-17T13:18:53.165Z,1012.75
2018-09-17T13:20:46.084Z,1012.72
2018-09-17T13:21:46.185Z,1012.71
2018-09-17T13:23:39.044Z,1012.67
2018-09-17T13:24:39.067Z,1012.68
2018-09-17T13:26:32.003Z,1012.65
2018-09-17T13:27:32.032Z,1012.64
2018-09-17T13:29:24.960Z,1012.59
2018-09-17T13:30:24.984Z,1012.62
2018-09-17T13:32:17.900Z,1012.64
2018-09-17T13:33:17.926Z,1012.60
2018-09-17T13:35:10.863Z,1012.55
2018-09-17T13:36:10.879Z,1012.59
2018-09-17T13:38:03.802Z,1012.55
2018-09-17T13:39:03.826Z,1012.52
2018-09-17T13:40:56.753Z,1012.49
2018-09-17T13:41:56.774Z,1012.46
2018-09-17T13:43:49.705Z,1012.51
2018-09-17T13:44:49.752Z,1012.47
2018-09-17T13:46:42.653Z,1012.53
2018-09-17T13:47:42.685Z,1012.50
2018-09-17T13:49:35.611Z,1012.48
2018-09-17T13:50:35.632Z,1012.44
2018-09-17T13:52:28.563Z,1012.39
2018-09-17T13:53:28.626Z,1012.39
2018-09-17T13:55:21.529Z,1012.44
2018-09-17T13:56:21.540Z,1012.45
2018-09-17T13:58:14.464Z,1012.47
2018-09-17T13:59:14.490Z,1012.45
2018-09-17T14:01:07.433Z,1012.40
2018-09-17T14:02:07.446Z,1012.45
2018-09-17T14:04:00.375Z,1012.43
2018-09-17T14:05:00.397Z,1012.41
2018-09-17T14:06:53.332Z,1012.38
2018-09-17T14:07:53.357Z,1012.40
2018-09-17T14:09:46.336Z,1012.39
2018-09-17T14:10:46.333Z,1012.40
2018-09-17T14:12:39.256Z,1012.37
2018-09-17T14:13:39.287Z,1012.35
2018-09-17T14:15:32.224Z,1012.35
2018-09-17T14:16:32.248Z,1012.32
2018-09-17T14:18:25.182Z,1012.29
2018-09-17T14:19:25.200Z,1012.26
2018-09-17T14:21:18.129Z,1012.28
2018-09-17T14:22:18.146Z,1012.27
2018-09-17T14:24:11.077Z,1012.25
2018-09-17T14:25:11.108Z,1012.26
2018-09-17T14:27:04.088Z,1012.24
2018-09-17T14:28:04.063Z,1012.20
2018-09-17T14:29:57.010Z,1012.17
2018-09-17T14:30:57.014Z,1012.17
2018-09-17T14:32:49.967Z,1012.19
2018-09-17T14:33:49.972Z,1012.19
2018-09-17T14:35:43.033Z,1012.13
2018-09-17T14:36:42.919Z,1012.13
2018-09-17T14:38:35.855Z,1012.08
2018-09-17T14:39:35.879Z,1012.07
2018-09-17T14:41:28.825Z,1012.04
2018-09-17T14:42:28.827Z,1011.99
2018-09-17T14:44:21.756Z,1012.02
2018-09-17T14:45:21.795Z,1011.98
2018-09-17T14:47:14.728Z,1011.94
2018-09-17T14:48:14.779Z,1011.94
2018-09-17T14:50:07.654Z,1011.94
2018-09-17T14:51:07.688Z,1011.92
2018-09-17T14:53:00.636Z,1011.88
2018-09-17T14:54:00.664Z,1011.90
2018-09-17T14:55:53.616Z,1011.92
2018-09-17T14:56:53.615Z,1011.93
2018-09-17T14:58:46.538Z,1011.92
2018-09-17T14:59:46.566Z,1011.87
2018-09-17T15:01:39.613Z,1011.85
2018-09-17T15:02:39.521Z,1011.86
2018-09-17T15:04:32.443Z,1011.84
2018-09-17T15:05:32.476Z,1011.83
2018-09-17T15:07:25.442Z,1011.78
2018-09-17T15:08:25.454Z,1011.77
2018-09-17T15:10:18.470Z,1011.79
2018-09-17T15:11:18.382Z,1011.75
2018-09-17T15:13:11.342Z,1011.75
2018-09-17T15:14:11.423Z,1011.75
2018-09-17T15:16:04.277Z,1011.75
2018-09-17T15:17:04.289Z,1011.74
2018-09-17T15:18:57.246Z,1011.71
2018-09-17T15:19:57.252Z,1011.72
2018-09-17T15:21:50.350Z,1011.70
2018-09-17T15:22:50.191Z,1011.70
2018-09-17T15:24:43.130Z,1011.70
2018-09-17T15:25:43.147Z,1011.65
2018-09-17T15:27:36.076Z,1011.62
2018-09-17T15:28:36.096Z,1011.63
2018-09-17T15:30:29.020Z,1011.59
2018-09-17T15:31:29.076Z,1011.59
2018-09-17T15:33:22.007Z,1011.51
2018-09-17T15:34:22.101Z,1011.53
2018-09-17T15:36:14.936Z,1011.51
2018-09-17T15:37:14.977Z,1011.47
2018-09-17T15:39:07.926Z,1011.45
2018-09-17T15:40:08.001Z,1011.44
2018-09-17T15:42:00.885Z,1011.42
2018-09-17T15:43:00.871Z,1011.40
2018-09-17T15:44:53.792Z,1011.40
2018-09-17T15:45:53.819Z,1011.38
2018-09-17T15:47:46.749Z,1011.38
2018-09-17T15:48:46.769Z,1011.37
2018-09-17T15:50:39.693Z,1011.35
2018-09-17T15:51:39.757Z,1011.33
2018-09-17T15:53:32.656Z,1011.34
2018-09-17T15:54:32.676Z,1011.33
2018-09-17T15:56:25.607Z,1011.31
2018-09-17T15:57:25.630Z,1011.25
2018-09-17T15:59:18.558Z,1011.29
2018-09-17T16:00:18.584Z,1011.25
2018-09-17T16:02:11.520Z,1011.22
2018-09-17T16:03:11.538Z,1011.20
2018-09-17T16:05:04.464Z,1011.19
2018-09-17T16:06:04.487Z,1011.19
2018-09-17T16:07:57.430Z,1011.23
2018-09-17T16:08:57.432Z,1011.18
2018-09-17T16:10:51.600Z,1011.19
2018-09-17T16:11:51.393Z,1011.20
2018-09-17T16:13:44.328Z,1011.17
2018-09-17T16:14:44.350Z,1011.19
2018-09-17T16:16:37.273Z,1011.17
2018-09-17T16:17:37.297Z,1011.17
2018-09-17T16:19:30.229Z,1011.16
2018-09-17T16:20:30.322Z,1011.13
2018-09-17T16:22:23.185Z,1011.14
2018-09-17T16:23:23.211Z,1011.16
2018-09-17T16:25:16.140Z,1011.16
2018-09-17T16:26:16.165Z,1011.15
2018-09-17T16:28:09.106Z,1011.15
2018-09-17T16:29:09.118Z,1011.15
2018-09-17T16:31:02.064Z,1011.18
2018-09-17T16:32:02.080Z,1011.15
2018-09-17T16:33:55.014Z,1011.20
2018-09-17T16:34:55.034Z,1011.17
2018-09-17T16:36:47.968Z,1011.19
2018-09-17T16:37:48.004Z,1011.19
2018-09-17T16:39:40.910Z,1011.22
2018-09-17T16:40:40.968Z,1011.18
2018-09-17T16:42:33.873Z,1011.17
2018-09-17T16:43:33.898Z,1011.14
2018-09-17T16:45:26.839Z,1011.14
2018-09-17T16:46:26.855Z,1011.13
2018-09-17T16:48:19.774Z,1011.11
2018-09-17T16:49:19.804Z,1011.09
2018-09-17T16:51:12.790Z,1011.09
2018-09-17T16:52:12.785Z,1011.09
2018-09-17T16:54:05.703Z,1011.05
2018-09-17T16:55:05.737Z,1011.07
2018-09-17T16:56:58.655Z,1011.06
2018-09-17T16:57:58.676Z,1011.08
2018-09-17T16:59:51.698Z,1011.11
2018-09-17T17:00:51.621Z,1011.13
2018-09-17T17:02:44.549Z,1011.13
2018-09-17T17:03:44.577Z,1011.12
2018-09-17T17:05:37.542Z,1011.15
2018-09-17T17:06:37.595Z,1011.12
2018-09-17T17:08:30.490Z,1011.15
2018-09-17T17:09:30.500Z,1011.09
2018-09-17T17:11:23.508Z,1011.13
2018-09-17T17:12:23.443Z,1011.15
2018-09-17T17:14:16.366Z,1011.14
2018-09-17T17:15:16.391Z,1011.16
2018-09-17T17:17:09.319Z,1011.13
2018-09-17T17:18:09.338Z,1011.12
2018-09-17T17:20:02.260Z,1011.14
2018-09-17T17:21:02.282Z,1011.12
2018-09-17T17:22:55.210Z,1011.15
2018-09-17T17:23:55.254Z,1011.12
2018-09-17T17:25:48.157Z,1011.12